Portada
METAR-TAF:

METAR-TAF

Aeropuertos :

Aeropuerto Internacional Lynden Pindling

Nasáu, Bahamas

latitud: 25-03N, longitud: 077-28W, altitud: 3 m

Observación

El informe se hizo hace 21 minutos, a las 15:00 UTC
Viento 12 kt del este-noreste
Temperatura 25°C
Humedad 69%
Presión 1020 hPa
Escasas nubes a una altura de 2000 ft
Cielo nuboso a una altura de 4000 ft

METAR: MYNN 231500Z 06012KT 999 FEW020 BKN040 25/19 A3012

Hora: 11:21 (15:21 UTC)

Pronóstico

El informe se hizo hace 4 horas y 18 minutos, a las 11:03 UTC
Pronóstico válido del 23 a las 12 UTC al 24 a las 12 UTC
Viento 12 kt del noreste
Visibilidad 10 km o más
Cielo nuboso a una altura de 2500 ft

TAF: MYNN 231103Z 2312/2412 04012KT 9999 BKN025

Observaciones y pronósticos meteorológicos de más de 4000 aeropuertos (mensajes METAR y TAF).

Los puntos amarillos y rojos representan las estaciones disponibles.

Ponga el ratón en el punto deseado para ver el nombre de la estación.

Haga clic para ver las observaciones y los pronósticos meteorológicos.

Para cambiar el mapa : haga clic en los botones verdes con una cruz de color negro para hacer un zoom, en el botón verde con un guión para alejar o en las flechas verdes para mapas adyacentes.


METAR-TAF: